createdAt,value
2018-10-04T00:00:33.953Z,101621.94
2018-10-04T00:03:02.017Z,101622.42
2018-10-04T00:05:30.077Z,101619.38
2018-10-04T00:07:58.113Z,101617.67
2018-10-04T00:10:26.138Z,101620.64
2018-10-04T00:12:54.166Z,101619.98
2018-10-04T00:15:22.234Z,101625.96
2018-10-04T00:17:50.374Z,101621.29
2018-10-04T00:20:18.536Z,101629.20
2018-10-04T00:22:46.583Z,101625.03
2018-10-04T00:25:14.626Z,101621.93
2018-10-04T00:27:42.666Z,101613.70
2018-10-04T00:30:10.730Z,101612.69
2018-10-04T00:32:38.766Z,101612.33
2018-10-04T00:35:06.836Z,101607.37
2018-10-04T00:37:34.936Z,101615.06
2018-10-04T00:40:03.080Z,101614.70
2018-10-04T00:42:31.119Z,101621.45
2018-10-04T00:44:59.185Z,101624.16
2018-10-04T00:47:27.214Z,101622.25
2018-10-04T00:49:55.231Z,101622.38
2018-10-04T00:52:23.280Z,101628.97
2018-10-04T00:54:51.390Z,101626.35
2018-10-04T00:57:19.426Z,101630.42
2018-10-04T00:59:47.531Z,101628.27
2018-10-04T01:02:15.733Z,101632.05
2018-10-04T01:04:43.782Z,101626.44
2018-10-04T01:07:11.946Z,101616.34
2018-10-04T01:09:39.981Z,101620.24
2018-10-04T01:12:08.040Z,101615.00
2018-10-04T01:14:36.097Z,101617.38
2018-10-04T01:17:04.151Z,101618.55
2018-10-04T01:19:32.213Z,101621.52
2018-10-04T01:22:00.262Z,101619.20
2018-10-04T01:24:28.338Z,101612.06
2018-10-04T01:26:56.362Z,101610.75
2018-10-04T01:29:24.508Z,101614.03
2018-10-04T01:31:52.562Z,101613.20
2018-10-04T01:34:20.619Z,101605.00
2018-10-04T01:36:48.663Z,101604.05
2018-10-04T01:39:16.725Z,101601.65
2018-10-04T01:41:44.750Z,101604.05
2018-10-04T01:44:12.799Z,101602.22
2018-10-04T01:46:40.893Z,101595.35
2018-10-04T01:51:43.353Z,101584.20
2018-10-04T01:54:11.510Z,101589.34
2018-10-04T01:56:39.606Z,101585.99
2018-10-04T01:59:07.740Z,101581.81
2018-10-04T02:01:35.795Z,101584.31
2018-10-04T02:04:03.837Z,101586.42
2018-10-04T02:06:31.906Z,101588.11
2018-10-04T02:08:59.989Z,101588.05
2018-10-04T02:11:28.034Z,101588.69
2018-10-04T02:13:56.091Z,101584.94
2018-10-04T02:16:24.121Z,101584.82
2018-10-04T02:18:59.005Z,101591.65
2018-10-04T02:21:27.554Z,101589.80
2018-10-04T02:23:55.622Z,101584.03
2018-10-04T02:26:23.718Z,101584.73
2018-10-04T02:28:51.826Z,101584.51
2018-10-04T02:31:20.881Z,101585.14
2018-10-04T02:33:48.922Z,101580.19
2018-10-04T02:36:16.955Z,101580.61
2018-10-04T02:38:45.002Z,101578.02
2018-10-04T02:41:13.088Z,101579.03
2018-10-04T02:43:41.146Z,101571.12
2018-10-04T02:46:09.219Z,101576.28
2018-10-04T02:48:39.378Z,101569.54
2018-10-04T02:51:07.410Z,101572.56
2018-10-04T02:53:35.428Z,101575.83
2018-10-04T02:56:08.781Z,101576.20
2018-10-04T02:58:36.856Z,101574.36
2018-10-04T03:01:04.927Z,101567.34
2018-10-04T03:03:32.986Z,101566.09
2018-10-04T03:06:01.014Z,101568.19
2018-10-04T03:08:29.059Z,101565.87
2018-10-04T03:10:57.107Z,101563.68
2018-10-04T03:13:25.176Z,101565.63
2018-10-04T03:15:53.230Z,101566.72
2018-10-04T03:18:21.364Z,101564.23
2018-10-04T03:20:49.386Z,101560.64
2018-10-04T03:23:17.486Z,101562.27
2018-10-04T03:25:45.509Z,101556.30
2018-10-04T03:28:13.583Z,101557.22
2018-10-04T03:30:41.612Z,101554.95
2018-10-04T03:33:09.800Z,101562.13
2018-10-04T03:35:44.680Z,101554.80
2018-10-04T03:38:12.962Z,101557.61
2018-10-04T03:40:40.976Z,101551.09
2018-10-04T03:43:09.033Z,101555.28
2018-10-04T03:45:37.169Z,101552.41
2018-10-04T03:50:39.710Z,101547.67
2018-10-04T03:53:07.861Z,101551.46
2018-10-04T03:55:36.008Z,101544.06
2018-10-04T03:58:04.087Z,101547.10
2018-10-04T04:00:32.254Z,101551.25
2018-10-04T04:03:00.281Z,101547.81
2018-10-04T04:05:28.346Z,101536.23
2018-10-04T04:07:56.534Z,101541.97
2018-10-04T04:10:24.594Z,101537.60
2018-10-04T04:12:52.694Z,101540.32
2018-10-04T04:15:20.730Z,101545.64
2018-10-04T04:17:48.794Z,101546.86
2018-10-04T04:20:16.817Z,101551.12
2018-10-04T04:22:44.851Z,101543.17
2018-10-04T04:25:12.968Z,101551.80
2018-10-04T04:27:41.065Z,101547.45
2018-10-04T04:30:09.329Z,101546.88
2018-10-04T04:32:37.718Z,101544.53
2018-10-04T04:35:05.851Z,101548.19
2018-10-04T04:37:34.136Z,101557.05
2018-10-04T04:40:02.193Z,101553.33
2018-10-04T04:42:30.251Z,101550.23
2018-10-04T04:44:58.283Z,101556.60
2018-10-04T04:47:26.346Z,101556.89
2018-10-04T04:49:54.404Z,101556.66
2018-10-04T04:52:22.511Z,101558.52
2018-10-04T04:55:25.305Z,101557.94
2018-10-04T04:57:54.283Z,101560.22
2018-10-04T05:00:23.242Z,101559.53
2018-10-04T05:02:51.484Z,101550.12
2018-10-04T05:05:20.153Z,101556.91
2018-10-04T05:07:49.394Z,101548.97
2018-10-04T05:10:17.429Z,101551.83
2018-10-04T05:12:45.532Z,101551.05
2018-10-04T05:15:13.635Z,101546.16
2018-10-04T05:17:41.658Z,101546.13
2018-10-04T05:20:09.734Z,101543.11
2018-10-04T05:22:37.765Z,101551.12
2018-10-04T05:25:05.844Z,101551.12
2018-10-04T05:27:34.436Z,101553.59
2018-10-04T05:30:02.850Z,101553.70
2018-10-04T05:32:31.073Z,101550.94
2018-10-04T05:34:59.362Z,101559.13
2018-10-04T05:37:27.471Z,101557.28
2018-10-04T05:39:55.499Z,101561.91
2018-10-04T05:42:23.519Z,101561.31
2018-10-04T05:44:51.732Z,101561.25
2018-10-04T05:47:19.717Z,101562.80
2018-10-04T05:49:47.887Z,101566.43
2018-10-04T05:52:16.341Z,101571.12
2018-10-04T05:54:44.414Z,101567.88
2018-10-04T05:57:12.585Z,101572.87
2018-10-04T05:59:40.614Z,101575.10
2018-10-04T06:02:08.674Z,101576.77
2018-10-04T06:04:37.182Z,101580.94
2018-10-04T06:07:05.235Z,101573.83
2018-10-04T06:09:33.261Z,101577.45
2018-10-04T06:12:01.368Z,101578.05
2018-10-04T06:14:29.508Z,101583.66
2018-10-04T06:16:57.586Z,101579.25
2018-10-04T06:19:25.873Z,101588.11
2018-10-04T06:21:54.114Z,101584.18
2018-10-04T06:24:22.111Z,101588.95
2018-10-04T06:26:50.145Z,101589.44
2018-10-04T06:29:18.142Z,101586.07
2018-10-04T06:31:46.161Z,101591.06
2018-10-04T06:34:14.205Z,101596.41
2018-10-04T06:39:10.230Z,101604.08
2018-10-04T06:41:38.245Z,101606.31
2018-10-04T06:44:06.418Z,101612.63
2018-10-04T06:46:34.331Z,101613.58
2018-10-04T06:49:02.369Z,101613.71
2018-10-04T06:51:30.405Z,101621.60
2018-10-04T06:53:58.432Z,101614.31
2018-10-04T06:56:26.490Z,101610.52
2018-10-04T06:59:01.191Z,101616.66
2018-10-04T07:01:29.210Z,101610.64
2018-10-04T07:03:57.325Z,101609.91
2018-10-04T07:06:25.380Z,101616.73
2018-10-04T07:08:53.506Z,101615.10
2018-10-04T07:11:21.757Z,101615.63
2018-10-04T07:13:49.799Z,101615.02
2018-10-04T07:16:17.919Z,101620.15
2018-10-04T07:18:46.005Z,101626.21
2018-10-04T07:21:14.145Z,101629.45
2018-10-04T07:23:42.212Z,101624.78
2018-10-04T07:26:10.242Z,101630.42
2018-10-04T07:28:38.261Z,101630.86
2018-10-04T07:31:06.494Z,101634.59
2018-10-04T07:33:34.579Z,101635.02
2018-10-04T07:36:02.604Z,101640.21
2018-10-04T07:38:30.666Z,101641.95
2018-10-04T07:40:58.682Z,101644.52
2018-10-04T07:43:26.782Z,101646.37
2018-10-04T07:45:54.805Z,101650.43
2018-10-04T07:48:22.870Z,101651.88
2018-10-04T07:50:50.918Z,101653.79
2018-10-04T07:53:19.034Z,101657.22
2018-10-04T07:55:47.090Z,101649.53
2018-10-04T07:58:15.158Z,101649.63
2018-10-04T08:00:43.174Z,101648.67
2018-10-04T08:03:11.302Z,101648.67
2018-10-04T08:05:39.367Z,101652.34
2018-10-04T08:08:07.374Z,101661.76
2018-10-04T08:10:35.486Z,101664.02
2018-10-04T08:13:03.529Z,101665.77
2018-10-04T08:15:31.642Z,101664.02
2018-10-04T08:17:59.602Z,101672.30
2018-10-04T08:20:27.653Z,101668.27
2018-10-04T08:22:55.738Z,101677.17
2018-10-04T08:25:23.754Z,101667.69
2018-10-04T08:27:51.822Z,101673.20
2018-10-04T08:30:19.854Z,101670.08
2018-10-04T08:32:48.039Z,101671.73
2018-10-04T08:35:16.160Z,101675.12
2018-10-04T08:37:44.196Z,101678.23
2018-10-04T08:40:12.219Z,101681.48
2018-10-04T08:42:40.286Z,101675.88
2018-10-04T08:45:08.343Z,101688.33
2018-10-04T08:47:36.453Z,101685.30
2018-10-04T08:50:04.673Z,101690.11
2018-10-04T08:52:38.261Z,101688.00
2018-10-04T08:55:11.611Z,101686.94
2018-10-04T08:57:39.650Z,101689.88
2018-10-04T09:00:07.677Z,101690.89
2018-10-04T09:02:35.824Z,101695.83
2018-10-04T09:05:03.893Z,101698.13
2018-10-04T09:07:32.051Z,101694.02
2018-10-04T09:10:00.745Z,101687.59
2018-10-04T09:12:30.068Z,101692.97
2018-10-04T09:14:58.135Z,101690.53
2018-10-04T09:17:26.457Z,101687.47
2018-10-04T09:19:54.494Z,101691.22
2018-10-04T09:22:22.590Z,101695.51
2018-10-04T09:24:50.800Z,101691.44
2018-10-04T09:27:18.851Z,101688.77
2018-10-04T09:29:52.238Z,101690.05
2018-10-04T09:32:20.294Z,101687.73
2018-10-04T09:34:48.346Z,101683.28
2018-10-04T09:37:16.441Z,101690.59
2018-10-04T09:39:44.546Z,101686.50
2018-10-04T09:42:12.647Z,101685.55
2018-10-04T09:44:42.348Z,101690.56
2018-10-04T09:47:15.798Z,101689.45
2018-10-04T09:49:43.930Z,101687.33
2018-10-04T09:52:11.982Z,101683.73
2018-10-04T09:54:46.477Z,101681.80
2018-10-04T09:57:19.854Z,101682.59
2018-10-04T09:59:48.016Z,101678.72
2018-10-04T10:02:17.721Z,101675.66
2018-10-04T10:04:45.810Z,101671.58
2018-10-04T10:07:13.930Z,101674.48
2018-10-04T10:09:41.956Z,101682.53
2018-10-04T10:12:10.162Z,101677.56
2018-10-04T10:14:38.242Z,101673.03
2018-10-04T10:17:06.276Z,101673.55
2018-10-04T10:19:34.333Z,101676.34
2018-10-04T10:22:02.365Z,101672.19
2018-10-04T10:24:30.391Z,101671.13
2018-10-04T10:26:58.414Z,101671.44
2018-10-04T10:29:26.485Z,101677.05
2018-10-04T10:31:54.619Z,101677.20
2018-10-04T10:34:22.721Z,101676.09
2018-10-04T10:36:50.744Z,101677.64
2018-10-04T10:39:18.802Z,101682.98
2018-10-04T10:41:46.865Z,101678.87
2018-10-04T10:44:14.925Z,101676.94
2018-10-04T10:46:43.033Z,101684.00
2018-10-04T10:49:11.323Z,101685.94
2018-10-04T10:51:39.400Z,101681.79
2018-10-04T10:54:07.642Z,101683.83
2018-10-04T10:56:35.714Z,101683.72
2018-10-04T10:59:03.742Z,101679.98
2018-10-04T11:01:31.962Z,101682.14
2018-10-04T11:04:00.036Z,101678.05
2018-10-04T11:06:28.130Z,101684.33
2018-10-04T11:08:56.174Z,101678.97
2018-10-04T11:11:24.237Z,101677.22
2018-10-04T11:13:52.291Z,101675.34
2018-10-04T11:16:20.373Z,101680.48
2018-10-04T11:18:48.441Z,101677.13
2018-10-04T11:21:16.657Z,101672.63
2018-10-04T11:23:44.782Z,101677.61
2018-10-04T11:26:12.866Z,101678.69
2018-10-04T11:28:40.933Z,101677.31
2018-10-04T11:31:09.009Z,101673.79
2018-10-04T11:33:37.064Z,101676.05
2018-10-04T11:36:05.135Z,101675.71
2018-10-04T11:38:33.269Z,101677.69
2018-10-04T11:41:01.356Z,101669.46
2018-10-04T11:43:29.424Z,101668.41
2018-10-04T11:45:58.817Z,101670.14
2018-10-04T11:48:29.097Z,101663.33
2018-10-04T11:50:57.138Z,101661.38
2018-10-04T11:53:25.210Z,101657.35
2018-10-04T11:55:53.270Z,101653.22
2018-10-04T11:58:21.526Z,101655.27
2018-10-04T12:00:49.697Z,101648.93
2018-10-04T12:03:17.771Z,101653.59
2018-10-04T12:05:45.803Z,101652.49
2018-10-04T12:08:13.885Z,101644.36
2018-10-04T12:10:41.942Z,101649.23
2018-10-04T12:13:10.134Z,101645.67
2018-10-04T12:15:38.210Z,101644.33
2018-10-04T12:18:06.311Z,101647.95
2018-10-04T12:20:34.346Z,101646.59
2018-10-04T12:23:02.396Z,101647.81
2018-10-04T12:25:30.544Z,101648.29
2018-10-04T12:27:58.579Z,101646.22
2018-10-04T12:30:26.604Z,101646.27
2018-10-04T12:32:54.645Z,101636.05
2018-10-04T12:35:22.693Z,101641.88
2018-10-04T12:37:50.872Z,101642.26
2018-10-04T12:40:18.946Z,101643.50
2018-10-04T12:42:47.018Z,101640.70
2018-10-04T12:45:15.057Z,101640.81
2018-10-04T12:47:43.098Z,101639.00
2018-10-04T12:50:11.199Z,101635.80
2018-10-04T12:52:39.311Z,101626.81
2018-10-04T12:55:07.281Z,101633.87
2018-10-04T12:57:35.317Z,101633.51
2018-10-04T13:00:03.368Z,101634.59
2018-10-04T13:02:31.411Z,101621.82
2018-10-04T13:04:59.450Z,101621.69
2018-10-04T13:07:27.506Z,101616.81
2018-10-04T13:09:55.553Z,101615.47
2018-10-04T13:12:23.789Z,101609.47
2018-10-04T13:14:51.920Z,101608.51
2018-10-04T13:17:20.012Z,101610.81
2018-10-04T13:19:48.063Z,101603.61
2018-10-04T13:22:16.119Z,101599.95
2018-10-04T13:24:44.173Z,101598.12
2018-10-04T13:27:12.236Z,101600.65
2018-10-04T13:29:40.297Z,101601.34
2018-10-04T13:32:08.345Z,101600.65
2018-10-04T13:34:36.396Z,101596.28
2018-10-04T13:37:04.461Z,101599.54
2018-10-04T13:39:32.541Z,101599.86
2018-10-04T13:42:00.598Z,101603.66
2018-10-04T13:44:28.650Z,101596.34
2018-10-04T13:46:56.733Z,101600.09
2018-10-04T13:49:24.887Z,101601.62
2018-10-04T13:51:52.926Z,101601.08
2018-10-04T13:54:20.995Z,101602.27
2018-10-04T13:56:49.065Z,101603.56
2018-10-04T13:59:17.136Z,101601.14
2018-10-04T14:01:45.330Z,101599.55
2018-10-04T14:04:13.578Z,101600.28
2018-10-04T14:06:41.790Z,101600.38
2018-10-04T14:09:09.974Z,101597.75
2018-10-04T14:11:38.038Z,101591.14
2018-10-04T14:14:06.360Z,101593.21
2018-10-04T14:16:34.431Z,101596.40
2018-10-04T14:19:02.614Z,101587.75
2018-10-04T14:21:30.722Z,101587.27
2018-10-04T14:23:58.766Z,101583.72
2018-10-04T14:26:26.876Z,101582.19
2018-10-04T14:28:54.906Z,101581.05
2018-10-04T14:31:23.145Z,101578.73
2018-10-04T14:33:51.290Z,101575.59
2018-10-04T14:36:20.388Z,101575.50
2018-10-04T14:38:48.525Z,101575.46
2018-10-04T14:41:16.657Z,101579.53
2018-10-04T14:43:44.898Z,101576.67
2018-10-04T14:46:12.970Z,101566.64
2018-10-04T14:48:41.061Z,101567.09
2018-10-04T14:51:09.518Z,101564.04
2018-10-04T14:53:37.579Z,101569.80
2018-10-04T14:56:05.610Z,101568.95
2018-10-04T14:58:33.697Z,101568.34
2018-10-04T15:01:01.778Z,101556.54
2018-10-04T15:03:29.940Z,101558.48
2018-10-04T15:05:57.993Z,101553.50
2018-10-04T15:08:26.110Z,101555.58
2018-10-04T15:10:54.145Z,101550.72
2018-10-04T15:13:22.245Z,101545.36
2018-10-04T15:15:50.292Z,101541.97
2018-10-04T15:18:18.350Z,101544.16
2018-10-04T15:20:46.400Z,101547.55
2018-10-04T15:23:14.461Z,101555.58
2018-10-04T15:25:42.590Z,101545.63
2018-10-04T15:28:10.634Z,101544.27
2018-10-04T15:30:38.678Z,101546.45
2018-10-04T15:33:06.985Z,101537.23
2018-10-04T15:35:35.005Z,101544.50
2018-10-04T15:38:03.049Z,101540.23
2018-10-04T15:40:31.126Z,101537.70
2018-10-04T15:42:59.205Z,101534.90
2018-10-04T15:45:27.273Z,101533.59
2018-10-04T15:47:55.362Z,101531.04
2018-10-04T15:50:23.412Z,101529.83
2018-10-04T15:52:51.509Z,101535.39
2018-10-04T15:55:19.590Z,101532.11
2018-10-04T15:57:47.633Z,101536.25
2018-10-04T16:00:15.779Z,101536.76
2018-10-04T16:02:43.844Z,101527.52
2018-10-04T16:05:11.897Z,101538.08
2018-10-04T16:07:39.923Z,101533.20
2018-10-04T16:10:08.012Z,101540.71
2018-10-04T16:12:36.098Z,101541.31
2018-10-04T16:15:06.702Z,101540.58
2018-10-04T16:17:34.717Z,101534.87
2018-10-04T16:20:02.826Z,101538.15
2018-10-04T16:22:30.885Z,101528.30
2018-10-04T16:24:58.971Z,101524.41
2018-10-04T16:27:32.309Z,101525.63
2018-10-04T16:30:00.355Z,101524.43
2018-10-04T16:32:28.410Z,101522.85
2018-10-04T16:34:56.529Z,101519.70
2018-10-04T16:37:24.706Z,101518.37
2018-10-04T16:39:52.841Z,101520.83
2018-10-04T16:42:20.907Z,101521.73
2018-10-04T16:44:49.002Z,101525.38
2018-10-04T16:47:17.186Z,101520.74
2018-10-04T16:49:45.253Z,101519.20
2018-10-04T16:52:13.347Z,101519.80
2018-10-04T16:54:41.510Z,101517.23
2018-10-04T16:57:09.567Z,101513.42
2018-10-04T16:59:37.958Z,101515.00
2018-10-04T17:02:06.011Z,101523.26
2018-10-04T17:04:35.081Z,101521.67
2018-10-04T17:07:03.163Z,101522.86
2018-10-04T17:09:31.352Z,101519.74
2018-10-04T17:11:59.377Z,101523.58
2018-10-04T17:14:27.478Z,101527.18
2018-10-04T17:16:55.514Z,101526.61
2018-10-04T17:19:23.564Z,101521.66
2018-10-04T17:21:51.674Z,101523.83
2018-10-04T17:24:20.738Z,101520.09
2018-10-04T17:26:48.842Z,101520.84
2018-10-04T17:29:16.927Z,101518.93
2018-10-04T17:31:44.990Z,101520.27
2018-10-04T17:34:13.068Z,101515.36
2018-10-04T17:36:42.174Z,101512.63
2018-10-04T17:39:11.588Z,101512.60
2018-10-04T17:41:40.700Z,101514.44
2018-10-04T17:44:09.418Z,101512.47
2018-10-04T17:46:37.492Z,101516.92
2018-10-04T17:49:05.561Z,101509.42
2018-10-04T17:51:33.932Z,101511.92
2018-10-04T17:54:02.170Z,101511.34
2018-10-04T17:56:30.226Z,101511.73
2018-10-04T17:58:58.342Z,101514.38
2018-10-04T18:01:26.381Z,101512.19
2018-10-04T18:03:54.560Z,101517.38
2018-10-04T18:06:22.772Z,101517.87
2018-10-04T18:08:50.806Z,101518.09
2018-10-04T18:11:19.404Z,101516.02
2018-10-04T18:13:47.566Z,101518.51
2018-10-04T18:16:15.670Z,101517.92
2018-10-04T18:18:43.730Z,101519.79
2018-10-04T18:21:11.919Z,101521.74
2018-10-04T18:23:40.057Z,101513.12
2018-10-04T18:26:08.110Z,101515.69
2018-10-04T18:28:36.288Z,101516.87
2018-10-04T18:31:04.470Z,101515.92
2018-10-04T18:33:32.562Z,101514.68
2018-10-04T18:36:00.663Z,101507.52
2018-10-04T18:38:28.720Z,101503.63
2018-10-04T18:40:56.737Z,101507.88
2018-10-04T18:43:24.788Z,101511.66
2018-10-04T18:45:52.825Z,101503.73
2018-10-04T18:48:20.874Z,101507.45
2018-10-04T18:50:48.929Z,101505.38
2018-10-04T18:53:16.973Z,101510.22
2018-10-04T18:55:45.035Z,101503.23
2018-10-04T18:58:13.200Z,101502.49
2018-10-04T19:00:41.280Z,101506.84
2018-10-04T19:03:09.306Z,101510.98
2018-10-04T19:05:38.517Z,101506.66
2018-10-04T19:08:06.545Z,101507.70
2018-10-04T19:10:34.599Z,101510.32
2018-10-04T19:13:02.669Z,101509.80
2018-10-04T19:15:30.711Z,101504.31
2018-10-04T19:17:58.781Z,101506.10
2018-10-04T19:20:26.854Z,101507.31
2018-10-04T19:22:55.044Z,101511.01
2018-10-04T19:25:23.124Z,101506.94
2018-10-04T19:27:51.208Z,101511.01
2018-10-04T19:30:19.290Z,101511.45
2018-10-04T19:32:47.340Z,101511.55
2018-10-04T19:35:15.406Z,101506.61
2018-10-04T19:37:43.442Z,101506.89
2018-10-04T19:40:12.558Z,101494.24
2018-10-04T19:42:40.619Z,101498.42
2018-10-04T19:45:08.834Z,101494.76
2018-10-04T19:47:36.941Z,101499.47
2018-10-04T19:50:05.197Z,101499.53
2018-10-04T19:52:33.298Z,101496.83
2018-10-04T19:55:01.383Z,101500.21
2018-10-04T19:57:29.496Z,101498.68
2018-10-04T19:59:57.577Z,101502.19
2018-10-04T20:02:25.651Z,101498.14
2018-10-04T20:04:53.762Z,101511.02
2018-10-04T20:07:21.813Z,101507.89
2018-10-04T20:09:50.005Z,101511.08
2018-10-04T20:12:18.064Z,101513.07
2018-10-04T20:14:46.122Z,101510.17
2018-10-04T20:17:14.210Z,101510.99
2018-10-04T20:19:42.229Z,101507.78
2018-10-04T20:22:13.463Z,101504.34
2018-10-04T20:24:41.514Z,101505.22
2018-10-04T20:27:10.906Z,101498.20
2018-10-04T20:29:39.194Z,101502.59
2018-10-04T20:32:07.773Z,101495.83
2018-10-04T20:34:35.851Z,101495.24
2018-10-04T20:37:04.234Z,101493.73
2018-10-04T20:39:33.703Z,101495.13
2018-10-04T20:42:01.761Z,101494.85
2018-10-04T20:44:30.021Z,101493.45
2018-10-04T20:46:58.122Z,101484.35
2018-10-04T20:49:26.166Z,101487.37
2018-10-04T20:51:54.224Z,101477.78
2018-10-04T20:54:22.309Z,101477.27
2018-10-04T20:56:50.493Z,101482.20
2018-10-04T20:59:18.578Z,101480.84
2018-10-04T21:01:46.606Z,101482.11
2018-10-04T21:04:14.659Z,101474.00
2018-10-04T21:06:42.925Z,101471.02
2018-10-04T21:09:12.536Z,101475.67
2018-10-04T21:11:41.425Z,101466.34
2018-10-04T21:14:09.910Z,101474.86
2018-10-04T21:16:37.949Z,101474.11
2018-10-04T21:19:06.974Z,101478.69
2018-10-04T21:21:35.134Z,101466.86
2018-10-04T21:24:03.194Z,101472.81
2018-10-04T21:26:31.262Z,101472.72
2018-10-04T21:28:59.320Z,101468.27
2018-10-04T21:31:27.610Z,101462.64
2018-10-04T21:33:55.739Z,101459.39
2018-10-04T21:36:23.804Z,101462.67
2018-10-04T21:38:51.854Z,101463.64
2018-10-04T21:41:19.924Z,101460.78
2018-10-04T21:43:48.131Z,101465.01
2018-10-04T21:46:16.293Z,101467.28
2018-10-04T21:48:44.398Z,101466.14
2018-10-04T21:51:12.489Z,101464.03
2018-10-04T21:53:40.542Z,101463.38
2018-10-04T21:56:08.592Z,101457.70
2018-10-04T21:58:36.788Z,101457.20
2018-10-04T22:01:05.539Z,101451.25
2018-10-04T22:03:33.655Z,101450.50
2018-10-04T22:06:01.706Z,101460.31
2018-10-04T22:08:29.778Z,101460.73
2018-10-04T22:11:04.103Z,101462.59
2018-10-04T22:13:32.177Z,101467.34
2018-10-04T22:16:00.234Z,101461.39
2018-10-04T22:18:28.288Z,101457.84
2018-10-04T22:20:56.319Z,101459.34
2018-10-04T22:23:24.351Z,101453.31
2018-10-04T22:25:52.421Z,101457.73
2018-10-04T22:28:20.513Z,101455.44
2018-10-04T22:30:48.537Z,101461.11
2018-10-04T22:33:16.627Z,101458.55
2018-10-04T22:35:44.715Z,101456.89
2018-10-04T22:38:12.760Z,101450.69
2018-10-04T22:40:40.825Z,101453.16
2018-10-04T22:43:08.994Z,101459.12
2018-10-04T22:45:37.042Z,101463.44
2018-10-04T22:48:05.078Z,101464.44
2018-10-04T22:50:33.130Z,101457.03
2018-10-04T22:53:01.234Z,101458.67
2018-10-04T22:55:29.290Z,101455.83
2018-10-04T22:58:02.071Z,101452.77
2018-10-04T23:00:30.642Z,101450.11
2018-10-04T23:02:58.897Z,101449.97
2018-10-04T23:05:26.993Z,101451.92
2018-10-04T23:07:55.083Z,101446.48
2018-10-04T23:10:23.124Z,101447.63
2018-10-04T23:12:51.177Z,101446.42
2018-10-04T23:15:19.754Z,101443.89
2018-10-04T23:17:47.777Z,101441.27
2018-10-04T23:20:15.850Z,101444.56
2018-10-04T23:22:43.875Z,101445.28
2018-10-04T23:25:11.926Z,101448.89
2018-10-04T23:27:39.962Z,101445.61
2018-10-04T23:30:08.842Z,101447.23
2018-10-04T23:32:36.905Z,101445.70
2018-10-04T23:35:04.953Z,101452.55
2018-10-04T23:37:32.981Z,101449.60
2018-10-04T23:40:01.017Z,101451.43
2018-10-04T23:42:29.104Z,101442.66
2018-10-04T23:44:57.094Z,101448.46
2018-10-04T23:47:25.210Z,101440.84
2018-10-04T23:49:53.352Z,101440.56
2018-10-04T23:52:21.487Z,101445.78
2018-10-04T23:54:49.579Z,101444.26
2018-10-04T23:57:17.709Z,101447.50
2018-10-04T23:59:45.751Z,101441.46
